RJSF/FKS METAR and TAF weather

Enter ICAO airport designator
Station Type Date Time Source
RJSF METAR 2019/08/24 11:00 UTC NOAA

RJSF 241100Z 36005KT 9999 FEW030 SCT070 BKN/// 22/15 Q1011


Station Type Date Time Source
RJSF Decoded METAR 2019/08/24 11:00 UTC NOAA

Station name not available
Aug 24, 2019 - 07:00 AM EDT / 2019.08.24 1100 UTC
Wind: from the N (360 degrees) at 6 MPH (5 KT):0
Visibility: greater than 7 mile(s):0
Sky conditions: mostly cloudy
Temperature: 71 F (22 C)
Dew Point: 59 F (15 C)
Relative Humidity: 64%
Pressure (altimeter): 29.85 in. Hg (1011 hPa)
ob: RJSF 241100Z 36005KT 9999 FEW030 SCT070 BKN/// 22/15 Q1011
cycle: 11

Station Type Date Time Source
RJSF TAF 2019/08/24 18:31 UTC NOAA

TAF RJSF 241705Z 2418/2600 36005KT 9999 FEW030 SCT050

Example: see airport list